createdAt,value
2023-05-08T00:00:16.247Z,13.54
2023-05-08T00:03:37.239Z,13.52
2023-05-08T00:07:00.309Z,13.47
2023-05-08T00:10:22.210Z,13.39
2023-05-08T00:13:42.122Z,13.67
2023-05-08T00:17:02.925Z,13.53
2023-05-08T00:20:23.210Z,13.60
2023-05-08T00:23:47.129Z,13.53
2023-05-08T00:27:04.149Z,13.62
2023-05-08T00:30:27.075Z,13.58
2023-05-08T00:33:41.213Z,13.51
2023-05-08T00:36:48.173Z,13.58
2023-05-08T00:39:55.189Z,13.42
2023-05-08T00:43:11.725Z,13.41
2023-05-08T00:46:37.986Z,13.38
2023-05-08T00:49:52.005Z,13.32
2023-05-08T00:53:10.990Z,13.30
2023-05-08T00:56:37.935Z,13.22
2023-05-08T00:59:56.410Z,13.05
2023-05-08T01:03:23.425Z,13.06
2023-05-08T01:06:39.753Z,13.06
2023-05-08T01:10:03.100Z,12.99
2023-05-08T01:13:52.388Z,13.05
2023-05-08T01:17:18.219Z,12.98
2023-05-08T01:20:32.453Z,12.79
2023-05-08T01:24:19.184Z,12.74
2023-05-08T01:27:54.915Z,12.75
2023-05-08T01:31:15.862Z,12.81
2023-05-08T01:34:27.066Z,12.82
2023-05-08T01:37:50.455Z,12.85
2023-05-08T01:41:16.412Z,12.96
2023-05-08T01:44:28.116Z,12.91
2023-05-08T01:47:38.447Z,12.76
2023-05-08T01:50:49.658Z,12.85
2023-05-08T01:54:05.918Z,13.00
2023-05-08T01:57:30.025Z,13.16
2023-05-08T02:00:55.152Z,13.16
2023-05-08T02:04:14.957Z,13.16
2023-05-08T02:07:34.277Z,13.15
2023-05-08T02:10:52.863Z,12.97
2023-05-08T02:14:22.034Z,12.86
2023-05-08T02:17:40.292Z,12.32
2023-05-08T02:21:05.942Z,12.48
2023-05-08T02:24:28.107Z,12.54
2023-05-08T02:27:46.974Z,12.59
2023-05-08T02:31:08.854Z,12.72
2023-05-08T02:34:34.826Z,12.74
2023-05-08T02:37:51.902Z,12.73
2023-05-08T02:41:16.215Z,12.83
2023-05-08T02:44:37.165Z,12.55
2023-05-08T02:48:05.163Z,12.22
2023-05-08T02:51:50.984Z,12.33
2023-05-08T02:55:41.681Z,12.48
2023-05-08T02:59:14.599Z,12.51
2023-05-08T03:02:57.102Z,12.48
2023-05-08T03:06:17.175Z,12.14
2023-05-08T03:09:28.856Z,12.21
2023-05-08T03:12:43.119Z,12.24
2023-05-08T03:16:01.822Z,12.25
2023-05-08T03:19:26.006Z,12.35
2023-05-08T03:22:44.852Z,12.26
2023-05-08T03:26:02.661Z,12.18
2023-05-08T03:29:26.621Z,12.14
2023-05-08T03:32:48.537Z,12.32
2023-05-08T03:36:11.758Z,12.62
2023-05-08T03:39:34.462Z,12.53
2023-05-08T03:42:56.432Z,12.81
2023-05-08T03:46:18.483Z,12.76
2023-05-08T03:49:41.650Z,12.82
2023-05-08T03:53:01.651Z,12.93
2023-05-08T03:56:26.026Z,12.99
2023-05-08T04:05:46.623Z,13.21
2023-05-08T04:09:25.818Z,13.15
2023-05-08T04:13:05.242Z,13.13
2023-05-08T04:16:28.320Z,13.13
2023-05-08T04:19:53.151Z,12.94
2023-05-08T04:56:04.753Z,13.26
2023-05-08T04:59:36.596Z,13.38
2023-05-08T05:03:03.696Z,13.35
2023-05-08T05:06:32.661Z,13.05
2023-05-08T05:09:37.561Z,13.20
2023-05-08T05:13:02.905Z,13.41
2023-05-08T05:16:08.640Z,13.24
2023-05-08T05:19:26.684Z,13.28
2023-05-08T05:22:41.871Z,13.28
2023-05-08T05:26:07.601Z,13.39
2023-05-08T05:29:31.680Z,13.16
2023-05-08T05:32:48.388Z,12.95
2023-05-08T05:36:04.355Z,13.33
2023-05-08T05:39:26.352Z,13.31
2023-05-08T05:42:41.645Z,13.27
2023-05-08T05:46:05.501Z,13.52
2023-05-08T05:49:13.490Z,13.84
2023-05-08T05:52:20.512Z,13.52
2023-05-08T05:55:46.759Z,13.37
2023-05-08T05:59:03.853Z,13.03
2023-05-08T06:02:29.683Z,13.63
2023-05-08T06:05:59.849Z,13.77
2023-05-08T06:09:39.683Z,13.90
2023-05-08T06:12:58.738Z,14.00
2023-05-08T06:16:31.686Z,14.09
2023-05-08T06:19:54.768Z,14.09
2023-05-08T06:23:27.806Z,14.25
2023-05-08T06:26:40.783Z,14.22
2023-05-08T06:29:57.769Z,14.04
2023-05-08T06:33:12.592Z,14.36
2023-05-08T06:36:38.352Z,14.53
2023-05-08T06:40:10.791Z,14.91
2023-05-08T06:43:20.513Z,15.03
2023-05-08T06:46:40.310Z,14.94
2023-05-08T06:49:46.181Z,14.95
2023-05-08T06:52:51.699Z,14.84
2023-05-08T06:56:03.630Z,15.05
2023-05-08T06:59:35.966Z,15.03
2023-05-08T07:02:58.407Z,14.84
2023-05-08T07:06:20.119Z,15.09
2023-05-08T07:09:40.824Z,15.32
2023-05-08T07:13:04.448Z,15.52
2023-05-08T07:16:31.027Z,14.92
2023-05-08T07:19:44.000Z,15.21
2023-05-08T07:23:44.812Z,15.46
2023-05-08T07:26:50.807Z,15.00
2023-05-08T07:30:04.357Z,15.23
2023-05-08T07:33:17.588Z,15.34
2023-05-08T07:36:41.571Z,15.25
2023-05-08T07:40:06.002Z,15.18
2023-05-08T07:43:14.771Z,14.84
2023-05-08T07:46:39.190Z,14.91
2023-05-08T07:49:55.277Z,14.88
2023-05-08T07:53:14.711Z,15.33
2023-05-08T07:56:35.544Z,15.52
2023-05-08T07:59:44.010Z,15.52
2023-05-08T08:03:08.855Z,15.45
2023-05-08T08:06:23.900Z,15.56
2023-05-08T08:09:28.798Z,15.50
2023-05-08T08:12:37.800Z,15.83
2023-05-08T08:15:46.324Z,15.59
2023-05-08T08:18:55.125Z,15.21
2023-05-08T08:22:02.479Z,15.19
2023-05-08T08:25:13.938Z,15.28
2023-05-08T08:28:46.834Z,15.52
2023-05-08T08:32:19.285Z,15.82
2023-05-08T08:35:31.000Z,16.04
2023-05-08T08:38:52.711Z,15.90
2023-05-08T08:42:07.447Z,16.05
2023-05-08T08:45:29.527Z,16.23
2023-05-08T08:48:38.819Z,16.48
2023-05-08T08:51:53.337Z,16.51
2023-05-08T08:55:04.710Z,16.45
2023-05-08T08:58:36.667Z,16.74
2023-05-08T09:02:01.568Z,16.88
2023-05-08T09:05:21.993Z,16.87
2023-05-08T09:08:53.255Z,16.84
2023-05-08T09:12:16.929Z,16.84
2023-05-08T09:15:31.989Z,16.70
2023-05-08T09:18:54.039Z,16.86
2023-05-08T09:22:11.838Z,17.15
2023-05-08T09:25:24.368Z,17.19
2023-05-08T09:28:44.096Z,16.91
2023-05-08T09:32:05.314Z,17.03
2023-05-08T09:35:20.859Z,17.15
2023-05-08T09:38:41.482Z,17.13
2023-05-08T09:42:06.332Z,17.16
2023-05-08T09:45:36.091Z,17.27
2023-05-08T09:49:03.186Z,17.16
2023-05-08T09:52:17.033Z,17.38
2023-05-08T09:55:25.635Z,17.28
2023-05-08T09:58:42.906Z,17.58
2023-05-08T10:01:51.732Z,17.32
2023-05-08T10:05:00.967Z,17.51
2023-05-08T10:08:21.894Z,17.44
2023-05-08T10:11:34.255Z,17.53
2023-05-08T10:14:46.072Z,17.40
2023-05-08T10:18:06.952Z,17.68
2023-05-08T10:21:21.211Z,17.69
2023-05-08T10:24:38.123Z,17.81
2023-05-08T10:28:03.529Z,17.93
2023-05-08T10:31:12.393Z,18.20
2023-05-08T10:34:47.198Z,18.58
2023-05-08T10:38:03.913Z,18.75
2023-05-08T10:41:21.815Z,18.93
2023-05-08T10:44:31.420Z,18.82
2023-05-08T10:48:04.875Z,18.98
2023-05-08T10:51:43.984Z,19.00
2023-05-08T10:55:04.161Z,18.97
2023-05-08T10:58:37.702Z,18.88
2023-05-08T11:01:57.735Z,19.57
2023-05-08T11:05:19.897Z,19.91
2023-05-08T11:08:32.770Z,20.33
2023-05-08T11:11:55.732Z,20.12
2023-05-08T11:15:10.883Z,20.70
2023-05-08T11:18:41.885Z,20.25
2023-05-08T11:22:15.450Z,20.06
2023-05-08T11:25:51.530Z,19.88
2023-05-08T11:29:01.402Z,20.69
2023-05-08T11:32:11.819Z,20.97
2023-05-08T11:35:40.570Z,21.55
2023-05-08T11:39:22.463Z,21.59
2023-05-08T11:42:51.143Z,21.59
2023-05-08T11:46:13.231Z,21.93
2023-05-08T11:49:44.739Z,21.63
2023-05-08T11:53:04.840Z,21.54
2023-05-08T11:56:32.029Z,22.70
2023-05-08T12:05:36.045Z,24.73
2023-05-08T12:08:49.931Z,25.34
2023-05-08T12:12:07.928Z,25.49
2023-05-08T12:15:26.248Z,25.98
2023-05-08T12:18:40.822Z,26.68
2023-05-08T12:21:53.638Z,26.42
2023-05-08T12:25:08.544Z,27.47
2023-05-08T12:28:25.765Z,27.82
2023-05-08T12:31:50.717Z,27.44
2023-05-08T12:35:09.834Z,28.37
2023-05-08T12:38:32.504Z,28.54
2023-05-08T12:41:58.478Z,28.76
2023-05-08T12:45:29.083Z,28.91
2023-05-08T12:48:43.457Z,28.32
2023-05-08T12:52:10.102Z,28.09
2023-05-08T12:55:25.695Z,27.16
2023-05-08T12:58:56.696Z,30.20
2023-05-08T13:02:14.718Z,29.53
2023-05-08T13:05:29.795Z,29.50
2023-05-08T13:08:51.312Z,30.07
2023-05-08T13:12:12.657Z,30.29
2023-05-08T13:15:24.394Z,31.12
2023-05-08T13:24:00.976Z,30.63
2023-05-08T13:27:15.056Z,31.43
2023-05-08T13:30:40.845Z,30.56
2023-05-08T13:33:47.536Z,29.53
2023-05-08T13:36:58.191Z,30.25
2023-05-08T13:40:21.576Z,30.80
2023-05-08T13:43:59.829Z,30.90
2023-05-08T13:47:30.709Z,30.16
2023-05-08T13:51:02.358Z,30.48
2023-05-08T13:54:20.298Z,29.81
2023-05-08T13:57:40.600Z,31.83
2023-05-08T14:01:07.534Z,29.71
2023-05-08T14:04:25.472Z,31.96
2023-05-08T14:07:49.212Z,32.13
2023-05-08T14:11:04.499Z,30.35
2023-05-08T14:14:36.343Z,30.80
2023-05-08T14:17:45.686Z,31.72
2023-05-08T14:20:57.132Z,31.40
2023-05-08T14:24:23.216Z,31.39
2023-05-08T14:27:47.432Z,31.26
2023-05-08T14:31:01.479Z,30.78
2023-05-08T14:34:06.690Z,29.86
2023-05-08T14:37:19.294Z,29.84
2023-05-08T14:40:42.903Z,28.87
2023-05-08T14:44:06.660Z,29.68
2023-05-08T14:47:27.514Z,28.48
2023-05-08T14:50:41.175Z,28.04
2023-05-08T14:53:48.822Z,26.70
2023-05-08T14:56:54.515Z,26.62
2023-05-08T15:00:04.521Z,25.27
2023-05-08T15:03:17.441Z,25.15
2023-05-08T15:06:25.806Z,25.82
2023-05-08T15:09:34.891Z,26.31
2023-05-08T15:12:44.212Z,26.91
2023-05-08T15:16:08.494Z,26.67
2023-05-08T15:19:24.732Z,25.70
2023-05-08T15:22:32.098Z,26.01
2023-05-08T15:26:03.117Z,26.42
2023-05-08T15:29:27.215Z,26.26
2023-05-08T15:32:51.098Z,25.49
2023-05-08T15:36:18.358Z,24.80
2023-05-08T15:39:41.308Z,25.05
2023-05-08T15:48:36.196Z,24.06
2023-05-08T15:52:07.362Z,24.44
2023-05-08T15:55:23.513Z,23.50
2023-05-08T15:58:32.878Z,22.72
2023-05-08T16:01:42.298Z,22.33
2023-05-08T16:04:53.766Z,22.16
2023-05-08T16:08:12.853Z,22.24
2023-05-08T16:11:22.212Z,21.79
2023-05-08T16:14:49.504Z,21.65
2023-05-08T16:18:21.241Z,21.54
2023-05-08T16:21:41.036Z,21.10
2023-05-08T16:25:06.557Z,21.19
2023-05-08T16:28:33.278Z,21.15
2023-05-08T16:31:51.378Z,21.27
2023-05-08T16:35:03.071Z,20.42
2023-05-08T16:38:27.194Z,20.64
2023-05-08T16:41:34.816Z,20.44
2023-05-08T16:44:38.705Z,19.99
2023-05-08T16:47:54.133Z,19.79
2023-05-08T16:51:01.402Z,20.00
2023-05-08T16:59:59.807Z,22.48
2023-05-08T17:03:06.317Z,22.60
2023-05-08T17:06:16.718Z,22.50
2023-05-08T17:09:40.980Z,22.16
2023-05-08T17:12:45.194Z,22.30
2023-05-08T17:16:02.010Z,21.54
2023-05-08T17:19:21.160Z,21.03
2023-05-08T17:22:38.324Z,20.13
2023-05-08T17:26:08.917Z,19.54
2023-05-08T17:29:45.903Z,19.44
2023-05-08T17:32:52.424Z,18.84
2023-05-08T17:35:57.581Z,18.64
2023-05-08T17:39:05.210Z,18.12
2023-05-08T17:42:13.199Z,17.63
2023-05-08T17:45:27.860Z,17.71
2023-05-08T17:48:43.217Z,17.36
2023-05-08T17:51:58.906Z,17.44
2023-05-08T17:55:22.105Z,17.48
2023-05-08T17:58:35.626Z,17.03
2023-05-08T18:01:52.656Z,16.68
2023-05-08T18:05:18.862Z,16.76
2023-05-08T18:08:49.770Z,16.61
2023-05-08T18:12:18.316Z,16.54
2023-05-08T18:15:48.295Z,16.53
2023-05-08T18:18:52.886Z,16.33
2023-05-08T18:22:10.040Z,16.16
2023-05-08T18:25:31.738Z,15.86
2023-05-08T18:28:50.039Z,15.88
2023-05-08T18:32:13.011Z,15.60
2023-05-08T18:35:27.798Z,15.43
2023-05-08T18:38:33.771Z,15.41
2023-05-08T18:41:44.716Z,15.34
2023-05-08T18:45:05.426Z,15.46
2023-05-08T18:48:28.965Z,15.31
2023-05-08T18:51:53.766Z,15.49
2023-05-08T18:55:11.546Z,15.22
2023-05-08T18:58:34.610Z,14.88
2023-05-08T19:01:51.326Z,15.20
2023-05-08T19:05:03.252Z,14.93
2023-05-08T19:08:07.778Z,14.73
2023-05-08T19:11:11.762Z,15.01
2023-05-08T19:14:22.606Z,15.23
2023-05-08T19:17:27.502Z,14.87
2023-05-08T19:20:34.378Z,15.01
2023-05-08T19:23:45.760Z,14.92
2023-05-08T19:26:56.064Z,14.61
2023-05-08T19:30:06.238Z,14.78
2023-05-08T19:33:12.141Z,14.60
2023-05-08T19:36:19.551Z,14.46
2023-05-08T19:39:24.192Z,14.22
2023-05-08T19:42:35.459Z,14.45
2023-05-08T19:45:50.151Z,14.20
2023-05-08T19:49:06.502Z,13.97
2023-05-08T19:52:15.922Z,14.00
2023-05-08T19:55:20.017Z,14.49
2023-05-08T19:58:46.193Z,14.58
2023-05-08T20:01:55.340Z,14.54
2023-05-08T20:08:20.723Z,14.18
2023-05-08T20:11:27.355Z,14.14
2023-05-08T20:14:32.509Z,14.21
2023-05-08T20:17:36.554Z,14.10
2023-05-08T20:21:00.578Z,14.11
2023-05-08T20:24:17.751Z,13.80
2023-05-08T20:27:47.627Z,13.78
2023-05-08T20:31:12.488Z,13.96
2023-05-08T20:34:44.461Z,13.84
2023-05-08T20:38:07.713Z,13.67
2023-05-08T20:41:30.799Z,13.78
2023-05-08T20:44:53.937Z,13.76
2023-05-08T20:47:58.820Z,13.71
2023-05-08T20:51:14.870Z,13.81
2023-05-08T20:54:42.347Z,13.84
2023-05-08T20:58:00.527Z,13.81
2023-05-08T21:01:08.842Z,13.76
2023-05-08T21:04:19.306Z,13.80
2023-05-08T21:07:39.603Z,13.70
2023-05-08T21:10:54.783Z,13.57
2023-05-08T21:14:14.100Z,13.60
2023-05-08T21:17:37.328Z,13.60
2023-05-08T21:20:59.805Z,13.46
2023-05-08T21:24:23.489Z,13.40
2023-05-08T21:27:33.444Z,13.55
2023-05-08T21:30:42.944Z,13.51
2023-05-08T21:33:50.467Z,13.44
2023-05-08T21:36:56.901Z,13.45
2023-05-08T21:40:19.524Z,13.43
2023-05-08T21:43:43.406Z,13.29
2023-05-08T21:47:05.737Z,13.14
2023-05-08T21:50:23.393Z,13.11
2023-05-08T21:53:35.318Z,13.04
2023-05-08T21:56:40.488Z,12.95
2023-05-08T21:59:51.157Z,12.82
2023-05-08T22:03:03.590Z,12.82
2023-05-08T22:06:08.428Z,12.88
2023-05-08T22:09:22.185Z,12.82
2023-05-08T22:12:31.982Z,12.67
2023-05-08T22:15:39.480Z,12.85
2023-05-08T22:18:44.526Z,12.77
2023-05-08T22:21:57.101Z,12.74
2023-05-08T22:25:13.605Z,12.58
2023-05-08T22:28:36.663Z,12.69
2023-05-08T22:31:48.777Z,12.68
2023-05-08T22:34:59.275Z,12.66
2023-05-08T22:38:22.363Z,12.59
2023-05-08T22:42:01.156Z,12.50
2023-05-08T22:45:10.952Z,12.35
2023-05-08T22:48:31.497Z,12.43
2023-05-08T22:52:01.226Z,12.39
2023-05-08T22:55:26.442Z,12.35
2023-05-08T22:58:35.036Z,12.38
2023-05-08T23:01:40.008Z,12.28
2023-05-08T23:04:50.442Z,12.21
2023-05-08T23:08:14.197Z,12.33
2023-05-08T23:11:34.050Z,12.28
2023-05-08T23:14:51.837Z,12.20
2023-05-08T23:18:10.233Z,12.13
2023-05-08T23:21:41.677Z,11.94
2023-05-08T23:24:58.641Z,11.86
2023-05-08T23:28:29.205Z,11.85
2023-05-08T23:31:48.960Z,11.79
2023-05-08T23:35:06.706Z,11.87
2023-05-08T23:38:23.450Z,11.77
2023-05-08T23:41:28.758Z,11.79
2023-05-08T23:44:36.700Z,11.73
2023-05-08T23:47:48.174Z,11.69
2023-05-08T23:51:10.353Z,11.70
2023-05-08T23:54:31.186Z,11.65
2023-05-08T23:57:48.260Z,11.72
